createdAt,value
2023-04-25T00:01:55.786Z,8.70
2023-04-25T00:05:38.238Z,8.60
2023-04-25T00:09:20.051Z,8.70
2023-04-25T00:13:03.959Z,8.70
2023-04-25T00:16:45.748Z,8.60
2023-04-25T00:20:27.480Z,8.50
2023-04-25T00:24:09.249Z,8.50
2023-04-25T00:27:50.973Z,8.40
2023-04-25T00:31:32.781Z,8.40
2023-04-25T00:35:14.556Z,8.40
2023-04-25T00:38:56.812Z,8.30
2023-04-25T00:42:39.051Z,8.30
2023-04-25T00:46:20.889Z,8.30
2023-04-25T00:50:02.617Z,8.30
2023-04-25T00:53:45.941Z,8.30
2023-04-25T00:57:27.779Z,8.20
2023-04-25T01:01:10.347Z,8.20
2023-04-25T01:04:52.107Z,8.20
2023-04-25T01:08:33.974Z,8.20
2023-04-25T01:12:15.803Z,8.20
2023-04-25T01:15:57.616Z,8.20
2023-04-25T01:19:39.557Z,8.20
2023-04-25T01:23:22.760Z,8.20
2023-04-25T01:27:04.748Z,8.20
2023-04-25T01:30:47.269Z,8.20
2023-04-25T01:34:29.056Z,8.20
2023-04-25T01:38:11.205Z,8.20
2023-04-25T01:41:53.100Z,8.10
2023-04-25T01:45:34.986Z,8.20
2023-04-25T01:49:16.713Z,8.20
2023-04-25T01:52:58.525Z,8.20
2023-04-25T01:56:41.257Z,8.30
2023-04-25T02:00:23.291Z,8.30
2023-04-25T02:04:05.496Z,8.30
2023-04-25T02:07:48.163Z,8.30
2023-04-25T02:11:29.845Z,8.30
2023-04-25T02:15:11.758Z,8.30
2023-04-25T02:18:53.806Z,8.30
2023-04-25T02:22:36.432Z,8.30
2023-04-25T02:26:18.368Z,8.20
2023-04-25T02:30:00.052Z,8.20
2023-04-25T02:33:41.795Z,8.20
2023-04-25T02:37:23.487Z,8.10
2023-04-25T02:41:05.629Z,8.10
2023-04-25T02:44:47.344Z,8.10
2023-04-25T02:48:30.353Z,8.10
2023-04-25T02:52:12.488Z,8.00
2023-04-25T02:55:54.333Z,7.90
2023-04-25T02:59:36.231Z,7.90
2023-04-25T03:03:19.194Z,7.90
2023-04-25T03:07:05.003Z,7.80
2023-04-25T03:10:46.911Z,7.80
2023-04-25T03:14:28.631Z,7.80
2023-04-25T03:18:10.415Z,7.80
2023-04-25T03:21:52.152Z,7.80
2023-04-25T03:25:33.845Z,7.70
2023-04-25T03:29:15.678Z,7.70
2023-04-25T03:32:57.411Z,7.70
2023-04-25T03:36:40.503Z,7.70
2023-04-25T03:40:23.613Z,7.70
2023-04-25T03:44:05.350Z,7.60
2023-04-25T03:47:47.112Z,7.60
2023-04-25T03:51:28.967Z,7.50
2023-04-25T03:55:11.374Z,7.50
2023-04-25T03:58:53.141Z,7.40
2023-04-25T04:02:36.073Z,7.40
2023-04-25T04:06:17.969Z,7.30
2023-04-25T04:10:00.300Z,7.30
2023-04-25T04:13:42.053Z,7.20
2023-04-25T04:17:23.783Z,7.10
2023-04-25T04:21:05.665Z,7.10
2023-04-25T04:24:47.587Z,7.00
2023-04-25T04:28:29.349Z,7.00
2023-04-25T04:32:11.086Z,6.90
2023-04-25T04:35:54.418Z,6.90
2023-04-25T04:39:36.403Z,6.80
2023-04-25T04:43:18.138Z,6.90
2023-04-25T04:47:00.582Z,6.80
2023-04-25T04:50:46.585Z,6.70
2023-04-25T04:54:28.336Z,6.70
2023-04-25T04:58:10.286Z,6.70
2023-04-25T05:01:51.966Z,6.70
2023-04-25T05:05:33.873Z,6.70
2023-04-25T05:09:16.205Z,6.70
2023-04-25T05:12:57.973Z,6.60
2023-04-25T05:16:39.777Z,6.70
2023-04-25T05:20:21.506Z,6.70
2023-04-25T05:24:03.358Z,6.70
2023-04-25T05:27:45.132Z,6.70
2023-04-25T05:31:27.337Z,6.70
2023-04-25T05:35:09.983Z,6.70
2023-04-25T05:38:51.721Z,6.80
2023-04-25T05:42:33.794Z,7.10
2023-04-25T05:46:16.582Z,7.40
2023-04-25T05:49:58.329Z,7.60
2023-04-25T05:53:40.036Z,7.90
2023-04-25T05:57:25.769Z,8.20
2023-04-25T06:01:07.557Z,8.50
2023-04-25T06:04:51.918Z,8.70
2023-04-25T06:08:33.976Z,8.90
2023-04-25T06:12:15.885Z,9.20
2023-04-25T06:15:57.648Z,9.30
2023-04-25T06:19:39.372Z,9.50
2023-04-25T06:23:21.433Z,9.70
2023-04-25T06:27:03.631Z,9.80
2023-04-25T06:30:45.830Z,10.00
2023-04-25T06:34:27.533Z,10.10
2023-04-25T06:38:09.983Z,10.30
2023-04-25T06:41:51.886Z,10.30
2023-04-25T06:45:33.632Z,10.40
2023-04-25T06:49:15.352Z,10.60
2023-04-25T06:52:57.043Z,10.70
2023-04-25T06:56:38.879Z,10.90
2023-04-25T07:00:21.104Z,11.00
2023-04-25T07:04:03.184Z,11.00
2023-04-25T07:07:45.312Z,11.20
2023-04-25T07:11:27.203Z,11.30
2023-04-25T07:15:11.057Z,11.30
2023-04-25T07:18:52.942Z,11.40
2023-04-25T07:22:34.835Z,11.40
2023-04-25T07:26:16.545Z,11.40
2023-04-25T07:29:58.503Z,11.50
2023-04-25T07:33:40.384Z,11.60
2023-04-25T07:37:22.177Z,11.60
2023-04-25T07:41:03.914Z,11.50
2023-04-25T07:44:45.947Z,11.50
2023-04-25T07:48:27.683Z,11.50
2023-04-25T07:52:09.408Z,11.50
2023-04-25T07:55:51.638Z,11.60
2023-04-25T07:59:33.694Z,11.70
2023-04-25T08:03:15.960Z,11.80
2023-04-25T08:06:57.898Z,11.80
2023-04-25T08:10:39.638Z,11.80
2023-04-25T08:14:21.473Z,11.90
2023-04-25T08:18:03.634Z,12.00
2023-04-25T08:21:45.411Z,12.00
2023-04-25T08:25:27.184Z,12.00
2023-04-25T08:29:08.959Z,12.00
2023-04-25T08:32:50.947Z,12.00
2023-04-25T08:36:39.419Z,12.10
2023-04-25T08:40:29.779Z,12.00
2023-04-25T08:44:12.300Z,12.00
2023-04-25T08:47:54.934Z,12.10
2023-04-25T08:51:44.077Z,12.00
2023-04-25T08:55:27.175Z,12.10
2023-04-25T08:59:09.319Z,12.10
2023-04-25T09:02:51.670Z,12.00
2023-04-25T09:06:35.720Z,12.00
2023-04-25T09:10:17.486Z,12.00
2023-04-25T09:14:16.757Z,11.90
2023-04-25T09:17:59.546Z,11.80
2023-04-25T09:21:41.308Z,11.60
2023-04-25T09:25:23.406Z,11.50
2023-04-25T09:29:08.786Z,11.30
2023-04-25T09:32:50.573Z,11.20
2023-04-25T09:36:32.735Z,11.10
2023-04-25T09:40:14.551Z,10.90
2023-04-25T09:44:00.074Z,10.80
2023-04-25T09:47:44.874Z,10.70
2023-04-25T09:51:28.866Z,10.70
2023-04-25T09:55:10.908Z,10.80
2023-04-25T09:58:55.946Z,10.80
2023-04-25T10:02:40.455Z,10.90
2023-04-25T10:06:24.115Z,10.80
2023-04-25T10:10:06.952Z,10.80
2023-04-25T10:13:49.274Z,10.80
2023-04-25T10:17:32.533Z,10.80
2023-04-25T10:21:16.396Z,10.80
2023-04-25T10:24:58.417Z,10.80
2023-04-25T10:29:00.796Z,10.80
2023-04-25T10:32:46.722Z,10.80
2023-04-25T10:36:33.350Z,10.80
2023-04-25T10:40:22.347Z,10.80
2023-04-25T10:44:05.484Z,10.80
2023-04-25T10:47:47.653Z,10.80
2023-04-25T10:51:47.238Z,10.80
2023-04-25T10:55:50.992Z,10.90
2023-04-25T10:59:32.912Z,11.00
2023-04-25T11:03:17.952Z,11.00
2023-04-25T11:11:07.414Z,11.10
2023-04-25T11:14:37.937Z,11.00
2023-04-25T11:14:49.119Z,11.10
2023-04-25T11:18:31.052Z,11.10
2023-04-25T11:22:13.503Z,11.10
2023-04-25T11:25:55.288Z,11.10
2023-04-25T11:29:37.098Z,11.20
2023-04-25T11:33:19.038Z,11.20
2023-04-25T11:37:02.882Z,11.20
2023-04-25T11:40:44.962Z,11.20
2023-04-25T11:44:27.026Z,11.30
2023-04-25T11:48:08.799Z,11.30
2023-04-25T11:51:50.596Z,11.30
2023-04-25T11:55:32.612Z,11.40
2023-04-25T11:59:14.759Z,11.40
2023-04-25T12:03:01.070Z,11.30
2023-04-25T12:06:45.181Z,11.40
2023-04-25T12:10:27.138Z,11.40
2023-04-25T12:14:08.929Z,11.50
2023-04-25T12:17:52.878Z,11.60
2023-04-25T12:21:38.828Z,11.60
2023-04-25T12:25:47.958Z,11.70
2023-04-25T12:29:41.969Z,11.70
2023-04-25T12:33:32.077Z,11.80
2023-04-25T12:37:14.192Z,11.80
2023-04-25T12:40:56.377Z,11.90
2023-04-25T12:44:38.815Z,11.90
2023-04-25T12:48:21.448Z,11.90
2023-04-25T12:52:03.330Z,11.80
2023-04-25T12:55:47.058Z,11.80
2023-04-25T12:59:29.329Z,11.90
2023-04-25T13:03:14.722Z,11.90
2023-04-25T13:06:56.659Z,12.00
2023-04-25T13:10:40.124Z,12.00
2023-04-25T13:14:22.101Z,12.20
2023-04-25T13:18:06.482Z,12.20
2023-04-25T13:21:48.353Z,12.30
2023-04-25T13:25:30.140Z,12.30
2023-04-25T13:29:11.852Z,12.40
2023-04-25T13:32:53.770Z,12.40
2023-04-25T13:36:35.657Z,12.60
2023-04-25T13:40:20.550Z,12.80
2023-04-25T13:44:02.422Z,12.90
2023-04-25T13:47:44.216Z,12.90
2023-04-25T13:51:26.910Z,12.90
2023-04-25T13:55:09.583Z,12.90
2023-04-25T13:58:52.765Z,12.90
2023-04-25T14:02:34.459Z,12.90
2023-04-25T14:06:22.148Z,12.80
2023-04-25T14:10:06.337Z,12.90
2023-04-25T14:13:50.182Z,13.00
2023-04-25T14:17:32.320Z,13.10
2023-04-25T14:21:14.190Z,13.20
2023-04-25T14:24:55.958Z,13.30
2023-04-25T14:28:37.667Z,13.30
2023-04-25T14:32:19.501Z,13.20
2023-04-25T14:36:01.262Z,13.10
2023-04-25T14:39:44.678Z,13.10
2023-04-25T14:43:27.000Z,13.10
2023-04-25T14:47:08.844Z,13.10
2023-04-25T14:50:50.806Z,13.10
2023-04-25T14:54:33.233Z,13.10
2023-04-25T14:58:15.016Z,13.00
2023-04-25T15:01:59.458Z,13.00
2023-04-25T15:05:41.748Z,12.90
2023-04-25T15:09:25.046Z,12.90
2023-04-25T15:13:06.918Z,12.90
2023-04-25T15:16:48.716Z,12.90
2023-04-25T15:20:30.700Z,12.90
2023-04-25T15:24:12.425Z,13.00
2023-04-25T15:27:54.491Z,13.00
2023-04-25T15:31:36.763Z,13.00
2023-04-25T15:35:18.535Z,13.00
2023-04-25T15:39:00.265Z,12.90
2023-04-25T15:42:44.837Z,12.80
2023-04-25T15:46:26.829Z,12.80
2023-04-25T15:50:09.488Z,12.80
2023-04-25T15:53:51.381Z,12.80
2023-04-25T15:57:37.322Z,12.90
2023-04-25T16:01:19.168Z,12.90
2023-04-25T16:05:01.410Z,13.00
2023-04-25T16:08:43.329Z,13.10
2023-04-25T16:12:25.239Z,13.10
2023-04-25T16:16:07.266Z,13.00
2023-04-25T16:19:50.317Z,13.00
2023-04-25T16:23:32.232Z,12.90
2023-04-25T16:27:14.711Z,12.90
2023-04-25T16:30:56.653Z,12.80
2023-04-25T16:34:38.727Z,12.80
2023-04-25T16:38:20.571Z,12.80
2023-04-25T16:42:04.610Z,12.90
2023-04-25T16:45:46.645Z,13.00
2023-04-25T16:49:28.706Z,13.10
2023-04-25T16:53:10.636Z,12.90
2023-04-25T16:56:52.554Z,12.90
2023-04-25T17:00:34.584Z,12.80
2023-04-25T17:04:16.452Z,12.70
2023-04-25T17:07:58.277Z,12.60
2023-04-25T17:11:40.043Z,12.50
2023-04-25T17:15:21.810Z,12.40
2023-04-25T17:19:07.480Z,12.40
2023-04-25T17:22:49.743Z,12.40
2023-04-25T17:26:31.470Z,12.40
2023-04-25T17:30:14.084Z,12.40
2023-04-25T17:33:55.891Z,12.40
2023-04-25T17:37:38.142Z,12.40
2023-04-25T17:41:20.852Z,12.50
2023-04-25T17:45:02.630Z,12.50
2023-04-25T17:48:44.404Z,12.60
2023-04-25T17:52:26.380Z,12.60
2023-04-25T17:56:19.817Z,12.70
2023-04-25T18:00:09.317Z,12.60
2023-04-25T18:03:52.315Z,12.50
2023-04-25T18:07:34.286Z,12.40
2023-04-25T18:11:15.998Z,12.30
2023-04-25T18:14:57.688Z,12.20
2023-04-25T18:18:42.999Z,12.10
2023-04-25T18:22:24.780Z,12.10
2023-04-25T18:26:06.743Z,12.00
2023-04-25T18:29:48.471Z,12.00
2023-04-25T18:33:31.520Z,11.90
2023-04-25T18:37:14.280Z,11.80
2023-04-25T18:41:00.114Z,11.80
2023-04-25T18:44:47.731Z,11.70
2023-04-25T18:48:29.414Z,11.70
2023-04-25T18:52:12.827Z,11.60
2023-04-25T18:55:54.641Z,11.60
2023-04-25T18:59:36.426Z,11.50
2023-04-25T19:03:18.557Z,11.60
2023-04-25T19:07:00.500Z,11.50
2023-04-25T19:10:42.225Z,11.50
2023-04-25T19:14:24.167Z,11.50
2023-04-25T19:18:06.022Z,11.40
2023-04-25T19:21:50.271Z,11.40
2023-04-25T19:25:32.154Z,11.40
2023-04-25T19:29:15.179Z,11.30
2023-04-25T19:32:57.381Z,11.30
2023-04-25T19:36:41.032Z,11.30
2023-04-25T19:40:23.425Z,11.20
2023-04-25T19:44:09.043Z,11.10
2023-04-25T19:47:50.956Z,11.10
2023-04-25T19:51:33.348Z,11.00
2023-04-25T19:55:15.360Z,11.00
2023-04-25T19:59:00.350Z,10.90
2023-04-25T20:02:45.303Z,10.90
2023-04-25T20:06:28.881Z,10.90
2023-04-25T20:10:15.673Z,10.80
2023-04-25T20:13:57.530Z,10.80
2023-04-25T20:17:41.609Z,10.80
2023-04-25T20:21:23.873Z,10.70
2023-04-25T20:25:07.081Z,10.70
2023-04-25T20:28:48.955Z,10.70
2023-04-25T20:32:34.334Z,10.60
2023-04-25T20:36:16.163Z,10.60
2023-04-25T20:40:03.629Z,10.50
2023-04-25T20:44:23.675Z,10.50
2023-04-25T20:48:42.876Z,10.40
2023-04-25T20:52:24.701Z,10.40
2023-04-25T20:56:06.566Z,10.30
2023-04-25T20:59:48.989Z,10.30
2023-04-25T21:03:33.800Z,10.20
2023-04-25T21:07:15.832Z,10.20
2023-04-25T21:10:57.675Z,10.10
2023-04-25T21:14:39.356Z,10.00
2023-04-25T21:18:21.324Z,10.00
2023-04-25T21:22:03.677Z,9.90
2023-04-25T21:25:45.556Z,9.90
2023-04-25T21:29:27.396Z,9.80
2023-04-25T21:33:09.245Z,9.80
2023-04-25T21:36:51.033Z,9.80
2023-04-25T21:40:32.997Z,9.80
2023-04-25T21:44:17.373Z,9.80
2023-04-25T21:48:05.828Z,9.70
2023-04-25T21:51:50.715Z,9.80
2023-04-25T21:55:42.734Z,9.80
2023-04-25T21:59:28.421Z,9.70
2023-04-25T22:03:15.612Z,9.70
2023-04-25T22:06:59.764Z,9.70
2023-04-25T22:10:45.558Z,9.70
2023-04-25T22:14:32.634Z,9.60
2023-04-25T22:18:24.592Z,9.60
2023-04-25T22:22:07.691Z,9.60
2023-04-25T22:25:52.511Z,9.50
2023-04-25T22:29:38.668Z,9.50
2023-04-25T22:33:22.098Z,9.50
2023-04-25T22:37:09.404Z,9.40
2023-04-25T22:40:53.002Z,9.50
2023-04-25T22:44:34.880Z,9.40
2023-04-25T22:48:19.925Z,9.50
2023-04-25T22:52:10.337Z,9.50
2023-04-25T22:56:00.879Z,9.50
2023-04-25T22:59:48.005Z,9.50
2023-04-25T23:03:35.315Z,9.50
2023-04-25T23:07:19.228Z,9.50
2023-04-25T23:11:10.364Z,9.50
2023-04-25T23:14:54.284Z,9.50
2023-04-25T23:18:42.520Z,9.50
2023-04-25T23:22:27.996Z,9.50
2023-04-25T23:26:16.524Z,9.50
2023-04-25T23:30:02.297Z,9.50
2023-04-25T23:33:45.012Z,9.60
2023-04-25T23:37:26.789Z,9.60
2023-04-25T23:41:08.547Z,9.60
2023-04-25T23:44:50.247Z,9.60
2023-04-25T23:48:32.137Z,9.60
2023-04-25T23:52:13.936Z,9.60
2023-04-25T23:55:55.637Z,9.60
2023-04-25T23:59:37.332Z,9.60
